アンタナナリボ の空港の天気 - METARとTAF

イヴァト空港(アンタナナリボ) ( FMMI / TNR ) - マダガスカル アンタナナリボ
飛行場実況気象(Metar)
観測時間02/01 18:30 EAT (02/01 15:30 UTC)
風向・風速東南東 9m/s
視程10km以上
天気現象
少しの雲 雲底高度 300m
全天の4割程度の雲 雲底高度 520m
全天の8割程度の雲 雲底高度 610m
気温21℃
湿度83%
気圧1019hPa
METARFMMI 011530Z 11017KT 9999 FEW010 SCT017CB BKN020 21/18 Q1019 WS ALL RWY TEMPO 4000 TSRA
過去の天気等 Google飛行場航空写真 Wunderground天気予報

過去48時間のMETAR

飛行場予報(TAF)
発表時間: -
1日16時 EAT ~ 1日23時 EAT に 確率 40% で一時的に
風向・風速不定 10m/s
視程4000m
天気現象雷雨
1日23時 EAT ~ 2日1時 EAT に徐々に
少しの雲 雲底高度 300m
全天の8割程度の雲 雲底高度 610m
1日23時 EAT ~ 2日6時 EAT に 確率 30% で一時的に
視程4500m
天気現象雨霧雨
2日11時 EAT ~ 2日13時 EAT に徐々に
全天の8割程度の積乱雲 雲底高度 610m
2日15時 EAT ~ 2日21時 EAT に 確率 40% で一時的に
視程4000m
天気現象雷雨
TAF
FMMI 011100Z 0112/0218 12009KT 9999 BKN020CB
PROB40 TEMPO 0113/0120 VRB19KT 4000 TSRA
BECMG 0120/0122 FEW010 BKN020
PROB30 TEMPO 0120/0203 4500 RADZ
BECMG 0208/0210 BKN020CB
PROB40 TEMPO 0212/0218 4000 TSRA